sensor_id;sensor_type;location;lat;lon;timestamp;P1;durP1;ratioP1;P2;durP2;ratioP2
7531;SDS011;3807;49.030;8.714;2023-05-06T00:02:03;8.10;;;2.20;;
7531;SDS011;3807;49.030;8.714;2023-05-06T00:04:28;2.93;;;1.90;;
7531;SDS011;3807;49.030;8.714;2023-05-06T00:06:54;4.07;;;2.27;;
7531;SDS011;3807;49.030;8.714;2023-05-06T00:09:20;3.40;;;2.00;;
7531;SDS011;3807;49.030;8.714;2023-05-06T00:11:48;4.90;;;2.20;;
7531;SDS011;3807;49.030;8.714;2023-05-06T00:14:14;2.97;;;2.10;;
7531;SDS011;3807;49.030;8.714;2023-05-06T00:16:39;5.10;;;1.83;;
7531;SDS011;3807;49.030;8.714;2023-05-06T00:19:04;2.43;;;1.90;;
7531;SDS011;3807;49.030;8.714;2023-05-06T00:21:30;3.00;;;2.27;;
7531;SDS011;3807;49.030;8.714;2023-05-06T00:23:56;3.13;;;2.20;;
7531;SDS011;3807;49.030;8.714;2023-05-06T00:26:21;6.07;;;2.00;;
7531;SDS011;3807;49.030;8.714;2023-05-06T00:28:46;2.77;;;2.00;;
7531;SDS011;3807;49.030;8.714;2023-05-06T00:31:12;2.60;;;2.00;;
7531;SDS011;3807;49.030;8.714;2023-05-06T00:33:37;6.47;;;2.20;;
7531;SDS011;3807;49.030;8.714;2023-05-06T00:36:03;2.83;;;2.30;;
7531;SDS011;3807;49.030;8.714;2023-05-06T00:38:28;3.77;;;2.40;;
7531;SDS011;3807;49.030;8.714;2023-05-06T00:40:54;4.20;;;2.40;;
7531;SDS011;3807;49.030;8.714;2023-05-06T00:43:19;5.07;;;2.43;;
7531;SDS011;3807;49.030;8.714;2023-05-06T00:45:44;5.73;;;2.37;;
7531;SDS011;3807;49.030;8.714;2023-05-06T00:48:10;3.50;;;2.07;;
7531;SDS011;3807;49.030;8.714;2023-05-06T00:50:35;3.70;;;2.30;;
7531;SDS011;3807;49.030;8.714;2023-05-06T00:53:03;4.60;;;2.13;;
7531;SDS011;3807;49.030;8.714;2023-05-06T00:55:29;3.87;;;2.67;;
7531;SDS011;3807;49.030;8.714;2023-05-06T00:57:56;4.27;;;2.03;;
7531;SDS011;3807;49.030;8.714;2023-05-06T01:00:22;4.30;;;2.57;;
7531;SDS011;3807;49.030;8.714;2023-05-06T01:02:47;3.73;;;2.43;;
7531;SDS011;3807;49.030;8.714;2023-05-06T01:05:14;4.00;;;2.40;;
7531;SDS011;3807;49.030;8.714;2023-05-06T01:13:03;3.07;;;2.40;;
7531;SDS011;3807;49.030;8.714;2023-05-06T01:15:36;4.53;;;2.63;;
7531;SDS011;3807;49.030;8.714;2023-05-06T01:18:10;4.17;;;2.60;;
7531;SDS011;3807;49.030;8.714;2023-05-06T01:20:39;4.37;;;2.73;;
7531;SDS011;3807;49.030;8.714;2023-05-06T01:23:09;4.17;;;2.50;;
7531;SDS011;3807;49.030;8.714;2023-05-06T01:25:35;2.97;;;2.43;;
7531;SDS011;3807;49.030;8.714;2023-05-06T01:28:01;7.40;;;2.80;;
7531;SDS011;3807;49.030;8.714;2023-05-06T01:30:27;4.13;;;2.80;;
7531;SDS011;3807;49.030;8.714;2023-05-06T01:33:03;5.17;;;2.80;;
7531;SDS011;3807;49.030;8.714;2023-05-06T01:35:54;4.73;;;2.47;;
7531;SDS011;3807;49.030;8.714;2023-05-06T01:41:34;6.43;;;2.73;;
7531;SDS011;3807;49.030;8.714;2023-05-06T01:44:03;5.90;;;2.83;;
7531;SDS011;3807;49.030;8.714;2023-05-06T01:46:30;5.00;;;3.10;;
7531;SDS011;3807;49.030;8.714;2023-05-06T01:48:56;6.13;;;3.00;;
7531;SDS011;3807;49.030;8.714;2023-05-06T01:51:26;5.47;;;2.97;;
7531;SDS011;3807;49.030;8.714;2023-05-06T01:53:51;9.80;;;3.43;;
7531;SDS011;3807;49.030;8.714;2023-05-06T01:56:17;5.13;;;2.67;;
7531;SDS011;3807;49.030;8.714;2023-05-06T01:58:42;4.83;;;2.70;;
7531;SDS011;3807;49.030;8.714;2023-05-06T02:01:07;4.30;;;2.97;;
7531;SDS011;3807;49.030;8.714;2023-05-06T02:03:33;9.07;;;2.83;;
7531;SDS011;3807;49.030;8.714;2023-05-06T02:05:58;3.67;;;2.70;;
7531;SDS011;3807;49.030;8.714;2023-05-06T02:08:23;9.23;;;3.07;;
7531;SDS011;3807;49.030;8.714;2023-05-06T02:10:49;4.53;;;3.03;;
7531;SDS011;3807;49.030;8.714;2023-05-06T02:13:16;7.40;;;3.23;;
7531;SDS011;3807;49.030;8.714;2023-05-06T02:15:42;6.40;;;3.23;;
7531;SDS011;3807;49.030;8.714;2023-05-06T02:18:07;4.10;;;2.97;;
7531;SDS011;3807;49.030;8.714;2023-05-06T02:20:33;5.73;;;3.40;;
7531;SDS011;3807;49.030;8.714;2023-05-06T02:22:58;8.60;;;3.10;;
7531;SDS011;3807;49.030;8.714;2023-05-06T02:25:24;3.60;;;2.80;;
7531;SDS011;3807;49.030;8.714;2023-05-06T02:27:49;4.17;;;3.20;;
7531;SDS011;3807;49.030;8.714;2023-05-06T02:30:14;3.40;;;2.97;;
7531;SDS011;3807;49.030;8.714;2023-05-06T02:32:39;4.13;;;2.93;;
7531;SDS011;3807;49.030;8.714;2023-05-06T02:35:05;6.03;;;3.00;;
7531;SDS011;3807;49.030;8.714;2023-05-06T02:37:31;5.73;;;3.40;;
7531;SDS011;3807;49.030;8.714;2023-05-06T02:39:56;3.90;;;3.10;;
7531;SDS011;3807;49.030;8.714;2023-05-06T02:42:22;3.57;;;3.00;;
7531;SDS011;3807;49.030;8.714;2023-05-06T02:44:47;5.17;;;3.13;;
7531;SDS011;3807;49.030;8.714;2023-05-06T02:47:13;8.80;;;3.07;;
7531;SDS011;3807;49.030;8.714;2023-05-06T02:49:38;3.83;;;3.00;;
7531;SDS011;3807;49.030;8.714;2023-05-06T02:52:03;5.73;;;3.40;;
7531;SDS011;3807;49.030;8.714;2023-05-06T02:54:29;6.47;;;3.47;;
7531;SDS011;3807;49.030;8.714;2023-05-06T02:56:54;9.23;;;3.50;;
7531;SDS011;3807;49.030;8.714;2023-05-06T02:59:20;6.30;;;3.37;;
7531;SDS011;3807;49.030;8.714;2023-05-06T03:01:46;5.57;;;3.27;;
7531;SDS011;3807;49.030;8.714;2023-05-06T03:04:11;5.90;;;3.30;;
7531;SDS011;3807;49.030;8.714;2023-05-06T03:06:37;6.70;;;3.60;;
7531;SDS011;3807;49.030;8.714;2023-05-06T03:09:02;4.77;;;3.47;;
7531;SDS011;3807;49.030;8.714;2023-05-06T03:11:29;5.87;;;3.10;;
7531;SDS011;3807;49.030;8.714;2023-05-06T03:13:55;5.00;;;3.00;;
7531;SDS011;3807;49.030;8.714;2023-05-06T03:16:21;13.47;;;3.47;;
7531;SDS011;3807;49.030;8.714;2023-05-06T03:18:46;3.97;;;3.50;;
7531;SDS011;3807;49.030;8.714;2023-05-06T03:21:12;8.10;;;3.83;;
7531;SDS011;3807;49.030;8.714;2023-05-06T03:23:38;5.27;;;3.53;;
7531;SDS011;3807;49.030;8.714;2023-05-06T03:26:03;4.97;;;3.70;;
7531;SDS011;3807;49.030;8.714;2023-05-06T03:28:28;3.83;;;3.40;;
7531;SDS011;3807;49.030;8.714;2023-05-06T03:30:54;8.30;;;4.07;;
7531;SDS011;3807;49.030;8.714;2023-05-06T03:33:19;4.47;;;3.80;;
7531;SDS011;3807;49.030;8.714;2023-05-06T03:35:44;6.13;;;3.80;;
7531;SDS011;3807;49.030;8.714;2023-05-06T03:38:10;4.13;;;3.73;;
7531;SDS011;3807;49.030;8.714;2023-05-06T03:40:35;6.33;;;3.67;;
7531;SDS011;3807;49.030;8.714;2023-05-06T03:43:00;7.50;;;3.20;;
7531;SDS011;3807;49.030;8.714;2023-05-06T03:45:26;4.37;;;3.40;;
7531;SDS011;3807;49.030;8.714;2023-05-06T03:47:51;5.47;;;3.20;;
7531;SDS011;3807;49.030;8.714;2023-05-06T03:50:16;6.70;;;3.50;;
7531;SDS011;3807;49.030;8.714;2023-05-06T03:52:42;5.03;;;4.00;;
7531;SDS011;3807;49.030;8.714;2023-05-06T03:55:07;6.47;;;3.53;;
7531;SDS011;3807;49.030;8.714;2023-05-06T03:57:33;7.30;;;3.63;;
7531;SDS011;3807;49.030;8.714;2023-05-06T03:59:58;4.50;;;3.10;;
7531;SDS011;3807;49.030;8.714;2023-05-06T04:02:24;6.40;;;3.67;;
7531;SDS011;3807;49.030;8.714;2023-05-06T04:04:49;5.23;;;3.53;;
7531;SDS011;3807;49.030;8.714;2023-05-06T04:07:14;7.67;;;4.17;;
7531;SDS011;3807;49.030;8.714;2023-05-06T04:09:40;8.63;;;4.20;;
7531;SDS011;3807;49.030;8.714;2023-05-06T04:12:05;6.13;;;3.70;;
7531;SDS011;3807;49.030;8.714;2023-05-06T04:14:31;5.87;;;3.97;;
7531;SDS011;3807;49.030;8.714;2023-05-06T04:16:56;5.43;;;3.60;;
7531;SDS011;3807;49.030;8.714;2023-05-06T04:19:21;7.13;;;3.83;;
7531;SDS011;3807;49.030;8.714;2023-05-06T04:21:47;7.53;;;3.50;;
7531;SDS011;3807;49.030;8.714;2023-05-06T04:24:12;4.73;;;3.20;;
7531;SDS011;3807;49.030;8.714;2023-05-06T04:26:39;5.57;;;2.77;;
7531;SDS011;3807;49.030;8.714;2023-05-06T04:29:05;4.63;;;3.00;;
7531;SDS011;3807;49.030;8.714;2023-05-06T04:31:31;3.77;;;3.37;;
7531;SDS011;3807;49.030;8.714;2023-05-06T04:33:58;4.10;;;3.50;;
7531;SDS011;3807;49.030;8.714;2023-05-06T04:36:24;5.37;;;4.03;;
7531;SDS011;3807;49.030;8.714;2023-05-06T04:38:49;5.70;;;4.37;;
7531;SDS011;3807;49.030;8.714;2023-05-06T04:41:16;4.60;;;3.43;;
7531;SDS011;3807;49.030;8.714;2023-05-06T04:43:42;6.23;;;4.20;;
7531;SDS011;3807;49.030;8.714;2023-05-06T04:46:07;6.30;;;4.03;;
7531;SDS011;3807;49.030;8.714;2023-05-06T04:48:33;5.77;;;3.37;;
7531;SDS011;3807;49.030;8.714;2023-05-06T04:50:58;5.57;;;3.63;;
7531;SDS011;3807;49.030;8.714;2023-05-06T04:53:23;6.43;;;3.43;;
7531;SDS011;3807;49.030;8.714;2023-05-06T04:55:49;4.03;;;3.63;;
7531;SDS011;3807;49.030;8.714;2023-05-06T04:58:14;3.80;;;3.33;;
7531;SDS011;3807;49.030;8.714;2023-05-06T05:00:39;3.43;;;3.13;;
7531;SDS011;3807;49.030;8.714;2023-05-06T05:03:05;4.63;;;4.00;;
7531;SDS011;3807;49.030;8.714;2023-05-06T05:05:31;4.30;;;3.80;;
7531;SDS011;3807;49.030;8.714;2023-05-06T05:07:57;5.30;;;4.70;;
7531;SDS011;3807;49.030;8.714;2023-05-06T05:10:22;5.50;;;4.90;;
7531;SDS011;3807;49.030;8.714;2023-05-06T05:12:47;8.37;;;5.00;;
7531;SDS011;3807;49.030;8.714;2023-05-06T05:15:13;6.20;;;5.20;;
7531;SDS011;3807;49.030;8.714;2023-05-06T05:17:38;7.10;;;5.40;;
7531;SDS011;3807;49.030;8.714;2023-05-06T05:20:04;5.57;;;4.80;;
7531;SDS011;3807;49.030;8.714;2023-05-06T05:22:30;6.77;;;5.00;;
7531;SDS011;3807;49.030;8.714;2023-05-06T05:24:55;7.30;;;5.03;;
7531;SDS011;3807;49.030;8.714;2023-05-06T05:27:21;6.30;;;5.37;;
7531;SDS011;3807;49.030;8.714;2023-05-06T05:29:47;5.33;;;4.50;;
7531;SDS011;3807;49.030;8.714;2023-05-06T05:32:12;8.13;;;4.67;;
7531;SDS011;3807;49.030;8.714;2023-05-06T05:34:38;6.97;;;5.90;;
7531;SDS011;3807;49.030;8.714;2023-05-06T05:37:03;7.90;;;5.60;;
7531;SDS011;3807;49.030;8.714;2023-05-06T05:39:28;8.67;;;6.00;;
7531;SDS011;3807;49.030;8.714;2023-05-06T05:41:54;6.93;;;5.63;;
7531;SDS011;3807;49.030;8.714;2023-05-06T05:44:19;7.73;;;5.73;;
7531;SDS011;3807;49.030;8.714;2023-05-06T05:46:45;6.83;;;6.13;;
7531;SDS011;3807;49.030;8.714;2023-05-06T05:49:10;10.50;;;5.60;;
7531;SDS011;3807;49.030;8.714;2023-05-06T05:51:35;8.60;;;4.93;;
7531;SDS011;3807;49.030;8.714;2023-05-06T05:54:00;7.00;;;4.87;;
7531;SDS011;3807;49.030;8.714;2023-05-06T05:56:26;7.13;;;5.63;;
7531;SDS011;3807;49.030;8.714;2023-05-06T05:58:51;9.13;;;6.30;;
7531;SDS011;3807;49.030;8.714;2023-05-06T06:01:17;11.63;;;7.43;;
7531;SDS011;3807;49.030;8.714;2023-05-06T06:03:42;9.53;;;6.90;;
7531;SDS011;3807;49.030;8.714;2023-05-06T06:06:08;9.53;;;6.97;;
7531;SDS011;3807;49.030;8.714;2023-05-06T06:08:33;13.47;;;8.10;;
7531;SDS011;3807;49.030;8.714;2023-05-06T06:10:59;12.83;;;8.13;;
7531;SDS011;3807;49.030;8.714;2023-05-06T06:13:26;12.67;;;8.07;;
7531;SDS011;3807;49.030;8.714;2023-05-06T06:15:51;10.83;;;6.50;;
7531;SDS011;3807;49.030;8.714;2023-05-06T06:18:17;9.30;;;7.20;;
7531;SDS011;3807;49.030;8.714;2023-05-06T06:20:42;10.30;;;6.43;;
7531;SDS011;3807;49.030;8.714;2023-05-06T06:23:07;7.77;;;6.03;;
7531;SDS011;3807;49.030;8.714;2023-05-06T06:25:33;10.07;;;6.47;;
7531;SDS011;3807;49.030;8.714;2023-05-06T06:27:58;8.37;;;6.40;;
7531;SDS011;3807;49.030;8.714;2023-05-06T06:30:23;8.73;;;6.17;;
7531;SDS011;3807;49.030;8.714;2023-05-06T06:32:49;10.13;;;6.80;;
7531;SDS011;3807;49.030;8.714;2023-05-06T06:35:16;8.53;;;5.73;;
7531;SDS011;3807;49.030;8.714;2023-05-06T06:37:43;8.90;;;6.27;;
7531;SDS011;3807;49.030;8.714;2023-05-06T06:40:09;6.47;;;4.83;;
7531;SDS011;3807;49.030;8.714;2023-05-06T06:42:35;7.00;;;5.07;;
7531;SDS011;3807;49.030;8.714;2023-05-06T06:45:00;10.23;;;4.87;;
7531;SDS011;3807;49.030;8.714;2023-05-06T06:47:26;9.63;;;5.67;;
7531;SDS011;3807;49.030;8.714;2023-05-06T06:49:51;9.23;;;6.17;;
7531;SDS011;3807;49.030;8.714;2023-05-06T06:52:17;7.90;;;6.57;;
7531;SDS011;3807;49.030;8.714;2023-05-06T06:54:42;11.13;;;6.10;;
7531;SDS011;3807;49.030;8.714;2023-05-06T06:57:07;13.33;;;7.20;;
7531;SDS011;3807;49.030;8.714;2023-05-06T06:59:32;12.23;;;6.97;;
7531;SDS011;3807;49.030;8.714;2023-05-06T07:01:58;8.73;;;6.37;;
7531;SDS011;3807;49.030;8.714;2023-05-06T07:04:23;10.70;;;5.77;;
7531;SDS011;3807;49.030;8.714;2023-05-06T07:06:49;9.50;;;5.50;;
7531;SDS011;3807;49.030;8.714;2023-05-06T07:09:15;7.97;;;5.73;;
7531;SDS011;3807;49.030;8.714;2023-05-06T07:11:40;9.93;;;6.07;;
7531;SDS011;3807;49.030;8.714;2023-05-06T07:14:06;9.97;;;6.40;;
7531;SDS011;3807;49.030;8.714;2023-05-06T07:16:31;7.10;;;5.97;;
7531;SDS011;3807;49.030;8.714;2023-05-06T07:18:57;9.27;;;5.73;;
7531;SDS011;3807;49.030;8.714;2023-05-06T07:21:22;8.27;;;5.00;;
7531;SDS011;3807;49.030;8.714;2023-05-06T07:23:48;5.63;;;4.77;;
7531;SDS011;3807;49.030;8.714;2023-05-06T07:26:13;9.40;;;5.77;;
7531;SDS011;3807;49.030;8.714;2023-05-06T07:28:38;7.97;;;5.90;;
7531;SDS011;3807;49.030;8.714;2023-05-06T07:31:04;9.60;;;5.50;;
7531;SDS011;3807;49.030;8.714;2023-05-06T07:33:29;9.53;;;5.70;;
7531;SDS011;3807;49.030;8.714;2023-05-06T07:35:54;10.07;;;5.20;;
7531;SDS011;3807;49.030;8.714;2023-05-06T07:38:20;8.27;;;4.60;;
7531;SDS011;3807;49.030;8.714;2023-05-06T07:40:46;5.67;;;3.90;;
7531;SDS011;3807;49.030;8.714;2023-05-06T07:43:12;6.33;;;3.97;;
7531;SDS011;3807;49.030;8.714;2023-05-06T07:45:37;5.83;;;4.17;;
7531;SDS011;3807;49.030;8.714;2023-05-06T07:48:03;6.23;;;4.23;;
7531;SDS011;3807;49.030;8.714;2023-05-06T07:50:29;6.43;;;3.83;;
7531;SDS011;3807;49.030;8.714;2023-05-06T07:52:55;6.57;;;3.77;;
7531;SDS011;3807;49.030;8.714;2023-05-06T07:55:21;8.13;;;3.73;;
7531;SDS011;3807;49.030;8.714;2023-05-06T07:57:46;4.70;;;3.83;;
7531;SDS011;3807;49.030;8.714;2023-05-06T08:00:13;6.40;;;3.90;;
7531;SDS011;3807;49.030;8.714;2023-05-06T08:02:38;3.90;;;3.23;;
7531;SDS011;3807;49.030;8.714;2023-05-06T08:05:08;4.87;;;3.50;;
7531;SDS011;3807;49.030;8.714;2023-05-06T08:07:34;3.97;;;3.17;;
7531;SDS011;3807;49.030;8.714;2023-05-06T08:10:00;4.10;;;3.30;;
7531;SDS011;3807;49.030;8.714;2023-05-06T08:12:25;4.70;;;3.43;;
7531;SDS011;3807;49.030;8.714;2023-05-06T08:14:50;4.70;;;3.07;;
7531;SDS011;3807;49.030;8.714;2023-05-06T08:17:16;4.43;;;2.80;;
7531;SDS011;3807;49.030;8.714;2023-05-06T08:19:41;5.40;;;2.60;;
7531;SDS011;3807;49.030;8.714;2023-05-06T08:22:06;2.60;;;2.40;;
7531;SDS011;3807;49.030;8.714;2023-05-06T08:24:31;2.43;;;1.90;;
7531;SDS011;3807;49.030;8.714;2023-05-06T08:26:57;3.27;;;1.40;;
7531;SDS011;3807;49.030;8.714;2023-05-06T08:29:22;2.90;;;1.73;;
7531;SDS011;3807;49.030;8.714;2023-05-06T08:31:47;1.63;;;1.10;;
7531;SDS011;3807;49.030;8.714;2023-05-06T08:34:13;4.50;;;1.00;;
7531;SDS011;3807;49.030;8.714;2023-05-06T08:36:42;1.63;;;1.33;;
7531;SDS011;3807;49.030;8.714;2023-05-06T08:39:07;1.73;;;1.43;;
7531;SDS011;3807;49.030;8.714;2023-05-06T08:41:33;2.53;;;1.10;;
7531;SDS011;3807;49.030;8.714;2023-05-06T08:43:59;2.30;;;1.20;;
7531;SDS011;3807;49.030;8.714;2023-05-06T08:46:25;2.30;;;1.10;;
7531;SDS011;3807;49.030;8.714;2023-05-06T08:48:54;3.17;;;1.30;;
7531;SDS011;3807;49.030;8.714;2023-05-06T08:51:20;1.40;;;1.30;;
7531;SDS011;3807;49.030;8.714;2023-05-06T08:53:52;1.47;;;1.07;;
7531;SDS011;3807;49.030;8.714;2023-05-06T08:56:18;2.07;;;1.40;;
7531;SDS011;3807;49.030;8.714;2023-05-06T08:58:48;1.77;;;1.47;;
7531;SDS011;3807;49.030;8.714;2023-05-06T09:01:15;4.20;;;1.60;;
7531;SDS011;3807;49.030;8.714;2023-05-06T09:03:40;2.57;;;1.33;;
7531;SDS011;3807;49.030;8.714;2023-05-06T09:06:06;2.20;;;1.47;;
7531;SDS011;3807;49.030;8.714;2023-05-06T09:08:31;2.97;;;1.90;;
7531;SDS011;3807;49.030;8.714;2023-05-06T09:10:57;3.53;;;1.50;;
7531;SDS011;3807;49.030;8.714;2023-05-06T09:13:22;4.73;;;1.67;;
7531;SDS011;3807;49.030;8.714;2023-05-06T09:15:47;2.87;;;1.80;;
7531;SDS011;3807;49.030;8.714;2023-05-06T09:18:14;2.77;;;1.50;;
7531;SDS011;3807;49.030;8.714;2023-05-06T09:20:44;6.10;;;1.83;;
7531;SDS011;3807;49.030;8.714;2023-05-06T09:23:13;1.50;;;1.40;;
7531;SDS011;3807;49.030;8.714;2023-05-06T09:25:40;4.33;;;1.60;;
7531;SDS011;3807;49.030;8.714;2023-05-06T09:28:08;2.13;;;1.40;;
7531;SDS011;3807;49.030;8.714;2023-05-06T09:30:41;2.80;;;1.40;;
7531;SDS011;3807;49.030;8.714;2023-05-06T09:33:08;2.77;;;1.20;;
7531;SDS011;3807;49.030;8.714;2023-05-06T09:35:35;3.30;;;1.47;;
7531;SDS011;3807;49.030;8.714;2023-05-06T09:38:05;1.97;;;1.50;;
7531;SDS011;3807;49.030;8.714;2023-05-06T09:40:31;3.13;;;1.10;;
7531;SDS011;3807;49.030;8.714;2023-05-06T09:42:57;2.57;;;1.57;;
7531;SDS011;3807;49.030;8.714;2023-05-06T09:45:24;2.53;;;1.40;;
7531;SDS011;3807;49.030;8.714;2023-05-06T09:47:50;2.37;;;1.77;;
7531;SDS011;3807;49.030;8.714;2023-05-06T09:50:18;3.83;;;1.40;;
7531;SDS011;3807;49.030;8.714;2023-05-06T09:52:45;3.03;;;1.50;;
7531;SDS011;3807;49.030;8.714;2023-05-06T09:55:12;2.07;;;1.47;;
7531;SDS011;3807;49.030;8.714;2023-05-06T09:57:38;2.77;;;1.27;;
7531;SDS011;3807;49.030;8.714;2023-05-06T10:00:07;1.90;;;1.20;;
7531;SDS011;3807;49.030;8.714;2023-05-06T10:02:33;1.40;;;1.20;;
7531;SDS011;3807;49.030;8.714;2023-05-06T10:04:59;2.17;;;1.20;;
7531;SDS011;3807;49.030;8.714;2023-05-06T10:07:29;2.07;;;1.40;;
7531;SDS011;3807;49.030;8.714;2023-05-06T10:09:56;2.60;;;1.53;;
7531;SDS011;3807;49.030;8.714;2023-05-06T10:12:22;2.17;;;1.40;;
7531;SDS011;3807;49.030;8.714;2023-05-06T10:14:49;1.63;;;1.50;;
7531;SDS011;3807;49.030;8.714;2023-05-06T10:17:14;1.80;;;1.40;;
7531;SDS011;3807;49.030;8.714;2023-05-06T10:19:42;1.53;;;1.30;;
7531;SDS011;3807;49.030;8.714;2023-05-06T10:22:10;2.63;;;1.57;;
7531;SDS011;3807;49.030;8.714;2023-05-06T10:25:03;3.90;;;1.50;;
7531;SDS011;3807;49.030;8.714;2023-05-06T10:27:37;1.90;;;1.33;;
7531;SDS011;3807;49.030;8.714;2023-05-06T10:30:05;3.23;;;1.40;;
7531;SDS011;3807;49.030;8.714;2023-05-06T10:32:34;1.60;;;1.33;;
7531;SDS011;3807;49.030;8.714;2023-05-06T10:35:08;1.90;;;1.30;;
7531;SDS011;3807;49.030;8.714;2023-05-06T10:37:39;2.27;;;1.20;;
7531;SDS011;3807;49.030;8.714;2023-05-06T10:40:06;1.67;;;1.00;;
7531;SDS011;3807;49.030;8.714;2023-05-06T10:42:34;1.10;;;0.90;;
7531;SDS011;3807;49.030;8.714;2023-05-06T10:45:03;2.87;;;1.17;;
7531;SDS011;3807;49.030;8.714;2023-05-06T10:48:15;2.70;;;1.10;;
7531;SDS011;3807;49.030;8.714;2023-05-06T10:50:22;4.10;;;1.20;;
7531;SDS011;3807;49.030;8.714;2023-05-06T10:52:51;2.20;;;0.90;;
7531;SDS011;3807;49.030;8.714;2023-05-06T10:57:55;1.20;;;1.00;;
7531;SDS011;3807;49.030;8.714;2023-05-06T11:00:53;3.27;;;0.80;;
7531;SDS011;3807;49.030;8.714;2023-05-06T11:03:22;1.27;;;1.10;;
7531;SDS011;3807;49.030;8.714;2023-05-06T11:05:48;2.27;;;0.93;;
7531;SDS011;3807;49.030;8.714;2023-05-06T11:08:21;3.03;;;1.10;;
7531;SDS011;3807;49.030;8.714;2023-05-06T11:10:48;1.80;;;1.20;;
7531;SDS011;3807;49.030;8.714;2023-05-06T11:13:24;1.17;;;0.90;;
7531;SDS011;3807;49.030;8.714;2023-05-06T11:15:51;1.53;;;1.10;;
7531;SDS011;3807;49.030;8.714;2023-05-06T11:26:05;1.43;;;0.90;;
7531;SDS011;3807;49.030;8.714;2023-05-06T11:28:31;2.23;;;1.00;;
7531;SDS011;3807;49.030;8.714;2023-05-06T11:30:58;1.13;;;1.00;;
7531;SDS011;3807;49.030;8.714;2023-05-06T11:33:26;1.80;;;1.10;;
7531;SDS011;3807;49.030;8.714;2023-05-06T11:35:56;1.07;;;0.97;;
7531;SDS011;3807;49.030;8.714;2023-05-06T11:38:23;1.48;;;1.00;;
7531;SDS011;3807;49.030;8.714;2023-05-06T11:40:50;1.27;;;0.80;;
7531;SDS011;3807;49.030;8.714;2023-05-06T11:43:15;1.62;;;0.98;;
7531;SDS011;3807;49.030;8.714;2023-05-06T11:45:45;1.08;;;0.98;;
7531;SDS011;3807;49.030;8.714;2023-05-06T11:48:12;1.23;;;0.80;;
7531;SDS011;3807;49.030;8.714;2023-05-06T11:50:42;0.55;;;0.55;;
7531;SDS011;3807;49.030;8.714;2023-05-06T11:53:08;1.30;;;0.90;;
7531;SDS011;3807;49.030;8.714;2023-05-06T11:55:34;0.85;;;0.80;;
7531;SDS011;3807;49.030;8.714;2023-05-06T11:57:59;2.17;;;0.73;;
7531;SDS011;3807;49.030;8.714;2023-05-06T12:00:24;0.80;;;0.70;;
7531;SDS011;3807;49.030;8.714;2023-05-06T12:02:53;0.70;;;0.70;;
7531;SDS011;3807;49.030;8.714;2023-05-06T12:05:22;0.57;;;0.50;;
7531;SDS011;3807;49.030;8.714;2023-05-06T12:07:48;0.85;;;0.70;;
7531;SDS011;3807;49.030;8.714;2023-05-06T12:10:14;1.20;;;0.77;;
7531;SDS011;3807;49.030;8.714;2023-05-06T12:12:41;2.40;;;0.75;;
7531;SDS011;3807;49.030;8.714;2023-05-06T12:15:07;1.92;;;1.02;;
7531;SDS011;3807;49.030;8.714;2023-05-06T12:17:34;0.52;;;0.52;;
7531;SDS011;3807;49.030;8.714;2023-05-06T12:19:59;0.82;;;0.60;;
7531;SDS011;3807;49.030;8.714;2023-05-06T12:22:25;0.50;;;0.50;;
7531;SDS011;3807;49.030;8.714;2023-05-06T12:24:50;0.68;;;0.50;;
7531;SDS011;3807;49.030;8.714;2023-05-06T12:27:31;2.12;;;0.70;;
7531;SDS011;3807;49.030;8.714;2023-05-06T12:29:58;1.60;;;0.73;;
7531;SDS011;3807;49.030;8.714;2023-05-06T12:32:24;1.90;;;0.70;;
7531;SDS011;3807;49.030;8.714;2023-05-06T12:34:50;0.65;;;0.62;;
7531;SDS011;3807;49.030;8.714;2023-05-06T12:37:26;1.92;;;0.60;;
7531;SDS011;3807;49.030;8.714;2023-05-06T12:39:52;0.77;;;0.65;;
7531;SDS011;3807;49.030;8.714;2023-05-06T12:42:18;0.93;;;0.50;;
7531;SDS011;3807;49.030;8.714;2023-05-06T12:44:45;1.50;;;0.60;;
7531;SDS011;3807;49.030;8.714;2023-05-06T12:47:20;2.45;;;0.70;;
7531;SDS011;3807;49.030;8.714;2023-05-06T12:52:18;0.60;;;0.50;;
7531;SDS011;3807;49.030;8.714;2023-05-06T12:54:44;7.62;;;0.80;;
7531;SDS011;3807;49.030;8.714;2023-05-06T12:57:10;1.17;;;0.70;;
7531;SDS011;3807;49.030;8.714;2023-05-06T12:59:35;1.10;;;0.70;;
7531;SDS011;3807;49.030;8.714;2023-05-06T13:02:01;0.98;;;0.65;;
7531;SDS011;3807;49.030;8.714;2023-05-06T13:04:27;0.57;;;0.52;;
7531;SDS011;3807;49.030;8.714;2023-05-06T13:06:53;1.95;;;0.62;;
7531;SDS011;3807;49.030;8.714;2023-05-06T13:09:19;2.08;;;0.70;;
7531;SDS011;3807;49.030;8.714;2023-05-06T13:11:44;2.45;;;0.60;;
7531;SDS011;3807;49.030;8.714;2023-05-06T13:14:10;5.53;;;0.68;;
7531;SDS011;3807;49.030;8.714;2023-05-06T13:16:35;1.37;;;0.80;;
7531;SDS011;3807;49.030;8.714;2023-05-06T13:19:02;0.90;;;0.65;;
7531;SDS011;3807;49.030;8.714;2023-05-06T13:21:28;0.82;;;0.60;;
7531;SDS011;3807;49.030;8.714;2023-05-06T13:23:55;1.73;;;0.70;;
7531;SDS011;3807;49.030;8.714;2023-05-06T13:26:20;1.00;;;0.70;;
7531;SDS011;3807;49.030;8.714;2023-05-06T13:28:46;1.73;;;0.70;;
7531;SDS011;3807;49.030;8.714;2023-05-06T13:31:11;3.03;;;0.80;;
7531;SDS011;3807;49.030;8.714;2023-05-06T13:33:36;2.10;;;0.93;;
7531;SDS011;3807;49.030;8.714;2023-05-06T13:36:02;1.85;;;0.60;;
7531;SDS011;3807;49.030;8.714;2023-05-06T13:38:28;2.03;;;0.80;;
7531;SDS011;3807;49.030;8.714;2023-05-06T13:40:53;2.08;;;0.80;;
7531;SDS011;3807;49.030;8.714;2023-05-06T13:43:19;1.77;;;0.77;;
7531;SDS011;3807;49.030;8.714;2023-05-06T13:45:45;2.10;;;0.93;;
7531;SDS011;3807;49.030;8.714;2023-05-06T13:48:11;2.35;;;0.88;;
7531;SDS011;3807;49.030;8.714;2023-05-06T13:50:37;2.87;;;0.80;;
7531;SDS011;3807;49.030;8.714;2023-05-06T13:53:02;1.62;;;0.75;;
7531;SDS011;3807;49.030;8.714;2023-05-06T13:55:28;1.95;;;0.90;;
7531;SDS011;3807;49.030;8.714;2023-05-06T13:57:53;1.00;;;0.73;;
7531;SDS011;3807;49.030;8.714;2023-05-06T14:00:19;1.75;;;0.65;;
7531;SDS011;3807;49.030;8.714;2023-05-06T14:02:44;4.60;;;0.98;;
7531;SDS011;3807;49.030;8.714;2023-05-06T14:05:10;1.73;;;0.77;;
7531;SDS011;3807;49.030;8.714;2023-05-06T14:07:35;1.05;;;0.60;;
7531;SDS011;3807;49.030;8.714;2023-05-06T14:10:00;2.50;;;0.90;;
7531;SDS011;3807;49.030;8.714;2023-05-06T14:12:26;1.30;;;0.77;;
7531;SDS011;3807;49.030;8.714;2023-05-06T14:14:51;1.15;;;0.80;;
7531;SDS011;3807;49.030;8.714;2023-05-06T14:17:17;0.52;;;0.52;;
7531;SDS011;3807;49.030;8.714;2023-05-06T14:19:42;0.95;;;0.70;;
7531;SDS011;3807;49.030;8.714;2023-05-06T14:22:08;1.27;;;0.75;;
7531;SDS011;3807;49.030;8.714;2023-05-06T14:24:33;1.52;;;0.50;;
7531;SDS011;3807;49.030;8.714;2023-05-06T14:26:58;2.30;;;0.70;;
7531;SDS011;3807;49.030;8.714;2023-05-06T14:29:24;0.90;;;0.60;;
7531;SDS011;3807;49.030;8.714;2023-05-06T14:31:49;0.75;;;0.62;;
7531;SDS011;3807;49.030;8.714;2023-05-06T14:34:14;0.80;;;0.75;;
7531;SDS011;3807;49.030;8.714;2023-05-06T14:36:40;1.02;;;0.60;;
7531;SDS011;3807;49.030;8.714;2023-05-06T14:39:05;0.82;;;0.68;;
7531;SDS011;3807;49.030;8.714;2023-05-06T14:41:31;2.22;;;0.90;;
7531;SDS011;3807;49.030;8.714;2023-05-06T14:43:56;2.20;;;0.85;;
7531;SDS011;3807;49.030;8.714;2023-05-06T14:46:22;0.80;;;0.60;;
7531;SDS011;3807;49.030;8.714;2023-05-06T14:48:47;5.20;;;1.77;;
7531;SDS011;3807;49.030;8.714;2023-05-06T14:51:12;1.00;;;0.70;;
7531;SDS011;3807;49.030;8.714;2023-05-06T14:53:38;2.15;;;0.70;;
7531;SDS011;3807;49.030;8.714;2023-05-06T14:56:05;0.60;;;0.60;;
7531;SDS011;3807;49.030;8.714;2023-05-06T14:58:32;2.37;;;0.73;;
7531;SDS011;3807;49.030;8.714;2023-05-06T15:00:57;2.72;;;0.75;;
7531;SDS011;3807;49.030;8.714;2023-05-06T15:03:22;0.75;;;0.60;;
7531;SDS011;3807;49.030;8.714;2023-05-06T15:05:48;1.42;;;0.77;;
7531;SDS011;3807;49.030;8.714;2023-05-06T15:08:14;1.75;;;0.70;;
7531;SDS011;3807;49.030;8.714;2023-05-06T15:10:40;1.77;;;0.75;;
7531;SDS011;3807;49.030;8.714;2023-05-06T15:13:05;1.65;;;0.68;;
7531;SDS011;3807;49.030;8.714;2023-05-06T15:15:31;0.93;;;0.88;;
7531;SDS011;3807;49.030;8.714;2023-05-06T15:17:56;3.25;;;1.52;;
7531;SDS011;3807;49.030;8.714;2023-05-06T15:20:21;1.35;;;0.80;;
7531;SDS011;3807;49.030;8.714;2023-05-06T15:22:47;2.33;;;0.98;;
7531;SDS011;3807;49.030;8.714;2023-05-06T15:25:12;1.80;;;1.00;;
7531;SDS011;3807;49.030;8.714;2023-05-06T15:27:37;1.37;;;0.90;;
7531;SDS011;3807;49.030;8.714;2023-05-06T15:30:03;1.35;;;0.80;;
7531;SDS011;3807;49.030;8.714;2023-05-06T15:32:29;0.88;;;0.77;;